Report METAR

 

LIBV - Gioia Del Colle, Italy
Distanza dalla stazione: SSE 15km
Dati ricevuti: 20/01/2019 02:55
Sereno
Sereno
 Vento da ONO
Vento: ONO 4 km/h
Temperatura: 1°C
P.to Rugiada: 1°C
Umidità: 100%
Barometro: 1012 hPa
Riassunto: Sereno
Visibilità: superiore a 10 km
2019/01/20 01:55 LIBV 200155Z 30002KT CAVOK 01/01 Q1012 RMK FEW FEW080 VIS MIN 9999 WIND THR32 30002KT WIND THR14 30002KT BLU
LIBD - Bari/Palese Macc, Italy
Distanza dalla stazione: NNO 26km
Dati ricevuti: 20/01/2019 03:20
Sereno
Sereno
 Vento da OSO
Vento: OSO 11 km/h
Temperatura: 4°C
Temperatura Vento: 1°C
P.to Rugiada: 2°C
Umidità: 87%
Barometro: 1013 hPa
Riassunto: Sereno
Visibilità: superiore a 10 km
2019/01/20 02:20 LIBD 200220Z 24006KT CAVOK 04/02 Q1013
LIBH - Marina Di Ginosa, Italy
Distanza dalla stazione: S 53km
Dati ricevuti: 20/01/2019 02:55
Sereno
Sereno
 Vento da ONO
Vento: ONO 13 km/h
Temperatura: 5°C
Temperatura Vento: 2°C
P.to Rugiada: 4°C
Umidità: 93%
Barometro: 1013 hPa
Riassunto: Sereno
Visibilità: superiore a 10 km
2019/01/20 01:55 LIBH 200155Z 29007KT CAVOK 05/04 Q1013 RMK SKC QUK / QUL / VIS MAR 20 KM VIS MIN 9999
 
LIBG - Grottaglie(Civ/A, Italy
Distanza dalla stazione: SE 61km
Dati ricevuti: 19/01/2019 19:50
DATI Obsoleti
Poche nubi
Poche nubi
 Vento da calmo
Vento: Calma
Temperatura: 7°C
P.to Rugiada: 7°C
Umidità: 100%
Barometro: 1012 hPa
Nuvole: Poche nubi
Visibilità: 10 km
Dettagli nuvole: Poche nubi 610 m
2019/01/19 18:50 LIBG 191850Z 00000KT 9999 FEW020 07/07 Q1012
LIBR - Brindisi/Casale, Italy
Distanza dalla stazione: ESE 96km
Dati ricevuti: 20/01/2019 03:20
Nebbia bassa, Parz. nuvoloso
Nebbia bassa, Parz. nuvoloso
 Vento da OSO
Vento: OSO 7 km/h
Temperatura: 5°C
Temperatura Vento: 3°C
P.to Rugiada: 4°C
Umidità: 93%
Barometro: 1013 hPa
Riassunto: Shallow Fog
Nuvole: Parz. nuvoloso
Visibilità: 10 km
Dettagli nuvole: Poche nubi 122 m
Parz. nuvoloso 914 m
2019/01/20 02:20 LIBR 200220Z 25004KT 9999 MIFG FEW004 SCT030 05/04 Q1013
LIBA - Amendola (it-Afb, Italy
Distanza dalla stazione: NO 118km
Dati ricevuti: 18/01/2019 18:55
DATI Obsoleti
Parz. nuvoloso
Parz. nuvoloso
 Vento da SSO
Vento: SSO 4 km/h
Temperatura: 8°C
P.to Rugiada: 6°C
Umidità: 87%
Barometro: 1012 hPa
Nuvole: Parz. nuvoloso
Visibilità: 10 km
Dettagli nuvole: Parz. nuvoloso 1829 m
2019/01/18 17:55 LIBA 181755Z 20002KT 9999 SCT060 08/06 Q1012 RMK BKN SCT130 VIS MIN 9999 WIND THR11 09002KT WIND THR29 /////KT BLU
 
LIBF - Foggia/Gino Lisa, Italy
Distanza dalla stazione: ONO 126km
Dati ricevuti: 19/01/2019 15:50
DATI Obsoleti
Molto nuvoloso
Molto nuvoloso
 Vento da OSO
Vento: OSO 15 km/h
Temperatura: 11°C
P.to Rugiada: 5°C
Umidità: 67%
Barometro: 1013 hPa
Nuvole: Molto nuvoloso
Visibilità: 10 km
Dettagli nuvole: Molto nuvoloso 914 m
2019/01/19 14:50 LIBF 191450Z 25008KT 9999 BKN030 11/05 Q1013
LIBN - Lecce (it-Afb), Italy
Distanza dalla stazione: SE 132km
Dati ricevuti: 20/01/2019 02:55
Sereno
Sereno
 Vento da Variabile
Vento: Variabile 4 km/h
Temperatura: 4°C
P.to Rugiada: 3°C
Umidità: 93%
Barometro: 1013 hPa
Riassunto: Sereno
Visibilità: superiore a 10 km
2019/01/20 01:55 LIBN 200155Z VRB02KT CAVOK 04/03 Q1013 RMK SCT SCT200 VIS MIN 9999 WIND THR14 VRB02KT WIND THR32 VRB02KT BLU